AYPY/POM METAR and TAF weather

Enter ICAO airport designator
Station Type Date Time Source
AYPY METAR 2019/05/26 00:00 UTC NOAA

AYPY 260000Z 16005KT 9999 HZ FEW020 BKN080 28/25 Q1012=


Station Type Date Time Source
AYPY Decoded METAR 2019/05/26 00:00 UTC NOAA

Moresby, Papua New Guinea (AYPY) 09-26S 147-13E 49M
May 25, 2019 - 08:00 PM EDT / 2019.05.26 0000 UTC
Wind: from the SSE (160 degrees) at 6 MPH (5 KT):0
Visibility: greater than 7 mile(s):0
Sky conditions: mostly cloudy
Weather: haze
Temperature: 82 F (28 C)
Dew Point: 77 F (25 C)
Relative Humidity: 83%
Pressure (altimeter): 29.88 in. Hg (1012 hPa)
ob: AYPY 260000Z 16005KT 9999 HZ FEW020 BKN080 28/25 Q1012=
cycle: 0

Station Type Date Time Source
AYPY TAF 2019/05/25 18:49 UTC NOAA

TAF AYPY 251435Z 2518/2618 00000KT 9999 BKN040
FM260000 16010KT 9999 SCT020
FM260400 16010KT 9999 -SHRA SCT020
FM260900 16005KT 9999 NSW SCT040 INTER 2604/2609 VRB15G25KT 4000 TSRA BKN008 FEW018CB

Example: see airport list